Time;durP1;ratioP1;P1;durP2;ratioP2;P2;SDS_P1;SDS_P2;PMS_P1;PMS_P2;Temp;Humidity;BMP_temperature;BMP_pressure;BME280_temperature;BME280_humidity;BME280_pressure;Samples;Min_cycle;Max_cycle;Signal;HPM_P1;HPM_P2
2023/05/04 00:02:02;;;;;;;9.35;5.53;;;;;;;-146.27;77.89;83537.41;5029802;28;20104;-70
2023/05/04 00:04:27;;;;;;;9.68;5.43;;;;;;;-146.27;77.79;83545.44;5031408;28;20022;-71
2023/05/04 00:06:53;;;;;;;12.45;5.82;;;;;;;-146.27;77.67;83533.38;5031255;28;20214;-70
2023/05/04 00:09:18;;;;;;;12.20;5.82;;;;;;;-146.27;78.71;83553.47;5029798;28;20056;-70
2023/05/04 00:11:43;;;;;;;7.70;5.90;;;;;;;-146.27;78.63;83557.50;5029929;28;20041;-71
2023/05/04 00:14:09;;;;;;;7.57;5.82;;;;;;;-146.27;78.35;83583.63;5030427;28;20500;-69
2023/05/04 00:16:35;;;;;;;13.38;6.47;;;;;;;-146.27;79.88;83535.41;5029082;28;20033;-70
2023/05/04 00:19:00;;;;;;;8.35;6.00;;;;;;;-146.27;78.84;83555.50;5030438;28;20033;-71
2023/05/04 00:21:26;;;;;;;11.38;6.90;;;;;;;-146.27;78.74;83543.44;5029738;28;20036;-70
2023/05/04 00:23:52;;;;;;;9.75;5.82;;;;;;;-146.27;78.90;83605.72;5029757;28;20511;-70
2023/05/04 00:26:17;;;;;;;16.98;7.18;;;;;;;-146.27;79.25;83589.66;5029539;28;20113;-70
2023/05/04 00:28:43;;;;;;;9.52;6.28;;;;;;;-146.27;80.12;83573.56;5028557;28;20028;-70
2023/05/04 00:31:08;;;;;;;11.38;6.45;;;;;;;-146.27;79.85;83613.75;5028886;28;20026;-70
2023/05/04 00:33:33;;;;;;;10.50;6.32;;;;;;;-146.27;80.94;83625.81;5030237;28;20036;-70
2023/05/04 00:36:01;;;;;;;13.98;7.72;;;;;;;-146.27;80.13;83623.81;5029283;28;20108;-70
2023/05/04 00:38:26;;;;;;;9.88;6.50;;;;;;;-146.27;80.46;83637.88;5045594;28;20391;-69
2023/05/04 00:40:52;;;;;;;11.48;6.47;;;;;;;-146.27;81.18;83641.91;5029800;28;20108;-70
2023/05/04 00:43:17;;;;;;;10.57;6.50;;;;;;;-146.27;81.05;83619.78;5028552;28;20366;-71
2023/05/04 00:45:42;;;;;;;12.63;6.82;;;;;;;-146.27;81.88;83635.88;5029663;28;20033;-71
2023/05/04 00:48:08;;;;;;;12.75;7.43;;;;;;;-146.27;80.78;83619.78;5030263;28;20159;-71
2023/05/04 00:50:35;;;;;;;10.98;7.05;;;;;;;-146.27;80.28;83591.66;5028742;28;20044;-71
2023/05/04 00:53:09;;;;;;;10.45;6.75;;;;;;;-146.27;80.75;83625.81;5030163;28;20056;-71
2023/05/04 00:55:39;;;;;;;11.20;7.45;;;;;;;-146.27;81.51;83623.81;5029087;28;20033;-70
2023/05/04 00:58:06;;;;;;;11.90;7.47;;;;;;;-146.27;81.61;83639.88;5026170;28;20489;-70
2023/05/04 01:00:32;;;;;;;12.25;7.07;;;;;;;-146.27;81.24;83647.91;5024755;28;20025;-72
2023/05/04 01:02:57;;;;;;;13.90;7.40;;;;;;;-146.27;81.20;83643.91;5029483;28;20392;-70
2023/05/04 01:05:25;;;;;;;13.02;7.32;;;;;;;-146.27;80.28;83645.91;5028954;28;20481;-71
2023/05/04 01:08:02;;;;;;;11.75;7.10;;;;;;;-146.27;80.94;83631.84;5028300;28;20025;-70
2023/05/04 01:10:41;;;;;;;12.57;7.13;;;;;;;-146.27;81.52;83617.78;5028437;28;20052;-70
2023/05/04 01:13:12;;;;;;;9.95;7.90;;;;;;;-146.27;81.07;83670.03;5030008;28;20099;-70
2023/05/04 01:15:38;;;;;;;10.00;7.45;;;;;;;-146.27;81.13;83649.94;5029520;28;20040;-70
2023/05/04 01:18:04;;;;;;;11.20;7.63;;;;;;;-146.27;81.20;83657.97;5029558;28;20377;-70
2023/05/04 01:20:30;;;;;;;10.68;6.85;;;;;;;-146.27;81.40;83649.94;5029370;28;20028;-70
2023/05/04 01:22:56;;;;;;;11.35;7.85;;;;;;;-146.27;81.65;83676.06;5030171;28;20102;-70
2023/05/04 01:25:26;;;;;;;15.45;7.38;;;;;;;-146.27;81.33;83637.88;5028180;28;20455;-70
2023/05/04 01:27:58;;;;;;;11.90;7.18;;;;;;;-146.27;81.59;83659.97;5030073;28;20033;-70
2023/05/04 01:30:47;;;;;;;11.15;7.82;;;;;;;-146.27;81.82;83664.00;5026029;28;20519;-70
2023/05/04 01:33:13;;;;;;;11.93;7.43;;;;;;;-146.27;81.71;83678.06;5024709;28;20063;-71
2023/05/04 01:35:38;;;;;;;11.02;7.10;;;;;;;-146.27;80.94;83682.09;5029394;28;20053;-71
2023/05/04 01:38:04;;;;;;;15.63;8.93;;;;;;;-146.27;80.92;83674.03;5027713;28;20080;-71
2023/05/04 01:40:30;;;;;;;11.23;7.68;;;;;;;-146.27;81.46;83659.97;5026931;28;20392;-72
2023/05/04 01:42:55;;;;;;;15.65;8.10;;;;;;;-146.27;81.96;83678.06;5029388;28;20029;-71
2023/05/04 01:45:21;;;;;;;15.32;7.32;;;;;;;-146.27;80.97;83680.06;5029839;28;20072;-71
2023/05/04 01:47:47;;;;;;;10.40;7.88;;;;;;;-146.27;80.97;83698.16;5025021;28;20075;-71
2023/05/04 01:50:12;;;;;;;13.40;7.63;;;;;;;-146.27;82.42;83706.19;5028690;28;20026;-71
2023/05/04 01:52:37;;;;;;;10.18;7.55;;;;;;;-146.27;81.90;83649.94;5029718;28;20066;-70
2023/05/04 01:55:03;;;;;;;11.48;7.63;;;;;;;-146.27;81.60;83645.91;5028542;28;20380;-71
2023/05/04 01:57:28;;;;;;;14.40;8.15;;;;;;;-146.27;82.57;83678.06;5033780;28;20537;-70
2023/05/04 01:59:54;;;;;;;10.93;7.10;;;;;;;-146.27;81.95;83678.06;5033265;28;20025;-69
2023/05/04 02:02:19;;;;;;;13.88;7.65;;;;;;;-146.27;82.09;83722.28;5025870;28;20354;-68
2023/05/04 02:04:45;;;;;;;13.52;7.50;;;;;;;-146.27;82.84;83762.47;5031042;28;20041;-70
2023/05/04 02:07:11;;;;;;;14.77;7.82;;;;;;;-146.27;82.47;83738.34;5020065;28;20977;-69
2023/05/04 02:09:37;;;;;;;12.38;8.48;;;;;;;-146.27;81.97;83734.31;5032490;28;20043;-69
2023/05/04 02:12:03;;;;;;;11.15;7.97;;;;;;;-146.27;82.68;83734.31;5032884;28;20045;-69
2023/05/04 02:14:28;;;;;;;14.07;7.70;;;;;;;-146.27;83.55;83728.31;5030924;28;20025;-69
2023/05/04 02:16:54;;;;;;;11.63;7.63;;;;;;;-146.27;83.15;83738.34;5032683;28;20025;-69
2023/05/04 02:19:20;;;;;;;11.10;7.43;;;;;;;-146.27;83.80;83762.47;5031488;28;20061;-68
2023/05/04 02:21:46;;;;;;;10.75;7.45;;;;;;;-146.27;83.71;83734.31;5032786;28;20394;-69
2023/05/04 02:24:11;;;;;;;15.20;7.25;;;;;;;-146.27;83.96;83750.41;5033065;28;20037;-69
2023/05/04 02:26:36;;;;;;;9.77;7.85;;;;;;;-146.27;83.54;83776.53;5031615;28;20029;-69
2023/05/04 02:29:03;;;;;;;12.55;8.25;;;;;;;-146.27;84.53;83740.34;5031899;28;20028;-69
2023/05/04 02:31:29;;;;;;;17.90;8.05;;;;;;;-146.27;84.27;83810.69;5032397;28;20039;-69
2023/05/04 02:33:54;;;;;;;12.73;7.45;;;;;;;-146.27;84.10;83772.50;5032400;28;20030;-69
2023/05/04 02:36:20;;;;;;;18.55;7.88;;;;;;;-146.27;83.96;83762.47;5031766;28;20048;-68
2023/05/04 02:38:45;;;;;;;12.02;7.70;;;;;;;-146.27;85.71;83770.50;5032912;28;20252;-69
2023/05/04 02:41:11;;;;;;;13.55;7.57;;;;;;;-146.27;84.85;83790.59;5031180;28;20638;-69
2023/05/04 02:43:36;;;;;;;12.15;7.50;;;;;;;-146.27;86.19;83788.59;5032697;28;20036;-69
2023/05/04 02:46:01;;;;;;;15.13;7.40;;;;;;;-146.27;85.10;83814.72;5030776;28;20025;-69
2023/05/04 02:48:27;;;;;;;14.52;7.30;;;;;;;-146.27;85.37;83786.56;5031760;28;20375;-69
2023/05/04 02:50:52;;;;;;;12.65;8.23;;;;;;;-146.27;85.04;83802.66;5031634;28;20056;-69
2023/05/04 02:53:17;;;;;;;12.18;7.38;;;;;;;-146.27;84.99;83780.53;5032708;28;20029;-69
2023/05/04 02:55:43;;;;;;;11.13;7.00;;;;;;;-146.27;85.56;83798.63;5030983;28;20029;-69
2023/05/04 02:58:08;;;;;;;14.43;8.07;;;;;;;-146.27;85.27;83818.72;5030472;28;20032;-69
2023/05/04 03:00:34;;;;;;;18.88;7.28;;;;;;;-146.27;85.72;83774.53;5032007;28;20224;-70
2023/05/04 03:02:59;;;;;;;13.38;8.48;;;;;;;-146.27;86.03;83798.63;5031808;28;20501;-71
2023/05/04 03:05:24;;;;;;;13.43;7.55;;;;;;;-146.27;85.67;83804.66;5031783;28;20108;-71
2023/05/04 03:07:50;;;;;;;11.50;7.78;;;;;;;-146.27;86.43;83824.75;5031626;28;20064;-70
2023/05/04 03:10:15;;;;;;;14.93;7.38;;;;;;;-146.27;86.26;83810.69;5030444;28;20384;-69
2023/05/04 03:12:41;;;;;;;12.88;7.25;;;;;;;-146.27;86.21;83828.78;5031981;28;20365;-70
2023/05/04 03:15:07;;;;;;;10.50;7.25;;;;;;;-146.27;86.57;83828.78;5031798;28;20032;-68
2023/05/04 03:17:32;;;;;;;13.55;7.32;;;;;;;-146.27;86.63;83812.69;5031262;28;20036;-70
2023/05/04 03:19:57;;;;;;;10.93;7.38;;;;;;;-146.27;86.74;83840.84;5031472;28;20113;-69
2023/05/04 03:22:23;;;;;;;9.82;7.10;;;;;;;-146.27;87.75;83806.66;5031453;28;20025;-70
2023/05/04 03:24:48;;;;;;;10.07;7.50;;;;;;;-146.27;87.70;83784.56;5031427;28;20415;-69
2023/05/04 03:27:14;;;;;;;10.75;7.18;;;;;;;-146.27;87.14;83820.75;5032141;28;20025;-69
2023/05/04 03:29:39;;;;;;;13.23;7.57;;;;;;;-146.27;87.41;83858.91;5031309;28;20542;-69
2023/05/04 03:32:04;;;;;;;11.77;6.53;;;;;;;-146.27;88.16;83858.91;5029321;28;20036;-70
2023/05/04 03:34:30;;;;;;;10.30;6.82;;;;;;;-146.27;87.32;83830.78;5028885;28;20074;-69
2023/05/04 03:36:55;;;;;;;11.95;6.90;;;;;;;-146.27;88.78;83846.84;5030190;28;20111;-69
2023/05/04 03:39:21;;;;;;;10.25;7.22;;;;;;;-146.27;88.64;83838.81;5031853;28;20078;-68
2023/05/04 03:41:46;;;;;;;13.80;7.55;;;;;;;-146.27;88.65;83814.72;5030383;28;20071;-68
2023/05/04 03:44:12;;;;;;;10.15;6.85;;;;;;;-146.27;88.35;83889.06;5031749;28;20029;-69
2023/05/04 03:46:37;;;;;;;12.43;6.75;;;;;;;-146.27;88.29;83862.94;5032109;28;20029;-69
2023/05/04 03:49:03;;;;;;;12.43;7.35;;;;;;;-146.27;87.51;83883.03;5031808;28;20189;-69
2023/05/04 03:51:28;;;;;;;12.13;6.93;;;;;;;-146.27;88.20;83862.94;5029846;28;20021;-70
2023/05/04 03:53:53;;;;;;;11.77;6.72;;;;;;;-146.27;88.52;83895.09;5023003;28;20513;-69
2023/05/04 03:56:19;;;;;;;13.07;8.00;;;;;;;-146.27;88.46;83862.94;5030829;28;20025;-69
2023/05/04 03:58:44;;;;;;;13.45;7.70;;;;;;;-146.27;88.13;83887.06;5031642;28;20441;-69
2023/05/04 04:01:09;;;;;;;9.20;6.70;;;;;;;-146.27;88.21;83891.06;5030148;28;20394;-69
2023/05/04 04:03:35;;;;;;;12.55;7.38;;;;;;;-146.27;87.79;83879.00;5030920;28;20436;-70
2023/05/04 04:06:02;;;;;;;10.30;6.90;;;;;;;-146.27;87.72;83917.19;5031268;28;20057;-69
2023/05/04 04:08:27;;;;;;;12.85;6.93;;;;;;;-146.27;88.04;83866.97;5028698;28;20030;-69
2023/05/04 04:10:53;;;;;;;11.70;6.97;;;;;;;-146.27;88.44;83870.97;5030333;28;20034;-69
2023/05/04 04:13:18;;;;;;;15.15;7.45;;;;;;;-146.27;88.50;83889.06;5029961;28;20112;-69
2023/05/04 04:15:45;;;;;;;12.88;7.03;;;;;;;-146.27;88.08;83961.41;5030652;28;20518;-69
2023/05/04 04:18:10;;;;;;;15.57;7.13;;;;;;;-146.27;88.51;83889.06;5030634;28;20040;-70
2023/05/04 04:20:36;;;;;;;11.13;7.40;;;;;;;-146.27;88.68;83893.06;5030474;28;20091;-71
2023/05/04 04:23:02;;;;;;;10.82;6.65;;;;;;;-146.27;88.08;83895.09;5029336;28;20056;-69
2023/05/04 04:25:28;;;;;;;12.43;7.32;;;;;;;-146.27;87.76;83899.09;5025191;28;20461;-69
2023/05/04 04:27:54;;;;;;;10.50;7.20;;;;;;;-146.27;88.64;83911.16;5027839;28;20073;-69
2023/05/04 04:30:20;;;;;;;13.60;7.28;;;;;;;-146.27;87.85;83935.28;5031065;28;20102;-69
2023/05/04 04:32:46;;;;;;;11.25;7.00;;;;;;;-146.27;88.71;83895.09;5027221;28;20036;-69
2023/05/04 04:35:12;;;;;;;11.73;6.18;;;;;;;-146.27;88.70;83931.25;5030310;28;20472;-70
2023/05/04 04:37:38;;;;;;;11.85;7.18;;;;;;;-146.27;88.89;83921.22;5027750;28;20488;-69
2023/05/04 04:40:05;;;;;;;11.60;6.63;;;;;;;-146.27;87.64;83919.19;5029220;28;20030;-69
2023/05/04 04:42:31;;;;;;;11.38;7.25;;;;;;;-146.27;88.01;83911.16;5030586;28;20033;-70
2023/05/04 04:44:56;;;;;;;13.52;6.70;;;;;;;-146.27;88.46;83893.06;5030817;28;20495;-69
2023/05/04 04:47:21;;;;;;;10.32;6.32;;;;;;;-146.27;88.51;83969.44;5030856;28;20025;-69
2023/05/04 04:49:47;;;;;;;10.93;6.22;;;;;;;-146.27;88.76;83907.16;5030834;28;20030;-69
2023/05/04 04:52:12;;;;;;;13.45;6.38;;;;;;;-146.27;88.79;83891.06;5029564;28;20466;-69
2023/05/04 04:54:38;;;;;;;9.98;6.80;;;;;;;-146.27;88.10;83895.09;5029507;28;20060;-69
2023/05/04 04:57:03;;;;;;;9.90;6.35;;;;;;;-146.27;88.80;83885.03;5026060;28;20537;-69
2023/05/04 04:59:28;;;;;;;11.05;7.35;;;;;;;-146.27;88.54;83923.22;5028945;28;20044;-69
2023/05/04 05:01:55;;;;;;;10.10;7.18;;;;;;;-146.27;88.25;83862.94;5029524;28;20405;-69
2023/05/04 05:04:21;;;;;;;16.50;7.13;;;;;;;-146.27;88.75;83907.16;5029861;28;20025;-68
2023/05/04 05:06:46;;;;;;;10.80;7.20;;;;;;;-146.27;88.94;83877.00;5027525;28;20021;-69
2023/05/04 05:09:12;;;;;;;12.55;6.70;;;;;;;-146.27;88.11;83911.16;5029226;28;20028;-70
2023/05/04 05:11:37;;;;;;;10.18;6.80;;;;;;;-146.27;88.00;83899.09;5023324;28;20049;-69
2023/05/04 05:14:03;;;;;;;14.52;6.63;;;;;;;-146.27;87.71;83866.97;5024414;28;20451;-70
2023/05/04 05:16:28;;;;;;;10.10;6.28;;;;;;;-146.27;87.84;83911.16;5024740;28;20029;-71
2023/05/04 05:18:53;;;;;;;11.30;6.75;;;;;;;-146.27;87.28;83883.03;5028111;28;20079;-69
2023/05/04 05:21:19;;;;;;;15.43;6.75;;;;;;;-146.27;87.92;83913.19;5029055;28;20025;-68
2023/05/04 05:23:44;;;;;;;13.95;6.65;;;;;;;-146.27;88.25;83866.97;5027221;28;20041;-68
2023/05/04 05:26:11;;;;;;;9.68;6.60;;;;;;;-146.27;87.06;83885.03;5028281;28;20120;-79
2023/05/04 05:28:36;;;;;;;11.60;6.03;;;;;;;-146.27;87.20;83915.19;5027217;28;20750;-69
2023/05/04 05:31:02;;;;;;;11.48;7.07;;;;;;;-146.27;86.66;83860.94;5027980;28;20029;-68
2023/05/04 05:33:27;;;;;;;10.40;6.85;;;;;;;-146.27;87.12;83887.06;5029326;28;20022;-70
2023/05/04 05:35:52;;;;;;;11.68;7.13;;;;;;;-146.27;85.75;83848.88;5029819;28;20039;-68
2023/05/04 05:38:18;;;;;;;11.98;6.75;;;;;;;-146.27;86.12;83870.97;5027288;28;20438;-70
2023/05/04 05:40:43;;;;;;;13.70;5.95;;;;;;;-146.27;86.39;83846.84;5016854;28;20033;-69
2023/05/04 05:43:09;;;;;;;13.57;6.55;;;;;;;-146.27;86.71;83870.97;5030439;28;20025;-69
2023/05/04 05:45:34;;;;;;;11.80;7.40;;;;;;;-146.27;85.83;83844.84;5029397;28;20031;-69
2023/05/04 05:48:00;;;;;;;14.25;7.15;;;;;;;-146.27;85.64;83860.94;5030151;28;20353;-69
2023/05/04 05:50:25;;;;;;;11.15;6.60;;;;;;;-146.27;85.99;83883.03;5030229;28;20041;-69
2023/05/04 05:52:50;;;;;;;13.55;7.70;;;;;;;-146.27;85.88;83899.09;5026331;28;20026;-70
2023/05/04 05:55:16;;;;;;;14.95;6.75;;;;;;;-146.27;85.48;83842.84;5028731;28;20025;-69
2023/05/04 05:57:41;;;;;;;11.52;7.03;;;;;;;-146.27;85.21;83776.53;5030107;28;20037;-69
2023/05/04 06:00:08;;;;;;;11.40;7.00;;;;;;;-146.27;84.82;83858.91;5029698;28;20377;-69
2023/05/04 06:02:33;;;;;;;10.60;7.25;;;;;;;-146.27;85.51;83854.91;5026254;28;20031;-70
2023/05/04 06:04:58;;;;;;;12.25;7.55;;;;;;;-146.27;85.76;83830.78;5029275;28;20611;-69
2023/05/04 06:07:24;;;;;;;11.15;6.82;;;;;;;-146.27;84.93;83798.63;5029581;28;20028;-69
2023/05/04 06:09:49;;;;;;;12.77;7.10;;;;;;;-146.27;86.29;83854.91;5029656;28;20558;-67
2023/05/04 06:12:16;;;;;;;12.15;6.47;;;;;;;-146.27;84.48;83786.56;5029481;28;20058;-68
2023/05/04 06:14:41;;;;;;;13.60;6.95;;;;;;;-146.27;84.51;83814.72;5030388;28;20033;-70
2023/05/04 06:17:07;;;;;;;13.50;7.30;;;;;;;-146.27;84.91;83782.56;5030276;28;20029;-68
2023/05/04 06:19:35;;;;;;;13.18;7.22;;;;;;;-146.27;84.08;83895.09;5028452;28;20025;-71
2023/05/04 06:22:00;;;;;;;12.75;6.97;;;;;;;-146.27;84.16;83742.38;5026842;28;20048;-70
2023/05/04 06:24:25;;;;;;;11.38;7.10;;;;;;;-146.27;84.77;83766.47;5027634;28;20025;-71
2023/05/04 06:26:51;;;;;;;10.18;6.85;;;;;;;-146.27;83.93;83722.28;5029386;28;20112;-69
2023/05/04 06:29:16;;;;;;;12.20;7.32;;;;;;;-146.27;83.77;83720.25;5024632;28;20370;-72
2023/05/04 06:31:43;;;;;;;11.52;7.22;;;;;;;-146.27;82.98;83726.28;5027259;28;20029;-71
2023/05/04 06:34:09;;;;;;;12.52;7.07;;;;;;;-146.27;83.39;83692.13;5029590;28;20076;-75
2023/05/04 06:36:35;;;;;;;12.15;7.43;;;;;;;-146.27;83.71;83714.22;5029116;28;20033;-70
2023/05/04 06:39:00;;;;;;;14.93;7.20;;;;;;;-146.27;82.92;83662.00;5028861;28;20017;-72
2023/05/04 06:41:29;;;;;;;14.57;7.25;;;;;;;-146.27;81.67;83666.00;5023190;28;20075;-72
2023/05/04 06:43:56;;;;;;;11.88;8.10;;;;;;;-146.27;81.37;83629.84;5030761;28;20285;-71
2023/05/04 06:46:21;;;;;;;15.23;7.18;;;;;;;-146.27;81.87;83645.91;5031009;28;20099;-70
2023/05/04 06:48:47;;;;;;;10.55;7.00;;;;;;;-146.27;80.05;83613.75;5022420;28;20017;-68
2023/05/04 06:51:15;;;;;;;14.15;7.25;;;;;;;-146.27;79.93;83633.84;5032928;28;20067;-70
2023/05/04 06:53:41;;;;;;;10.93;6.95;;;;;;;-146.27;79.79;83611.75;5031496;28;20094;-69
2023/05/04 06:56:07;;;;;;;9.50;6.78;;;;;;;-146.27;79.11;83575.59;5030133;28;20492;-68
2023/05/04 06:58:32;;;;;;;9.40;6.93;;;;;;;-146.27;78.77;83599.69;5032047;28;20360;-71
2023/05/04 07:00:58;;;;;;;11.68;6.55;;;;;;;-146.27;80.38;83585.63;5032772;28;20340;-71
2023/05/04 07:03:26;;;;;;;16.30;7.85;;;;;;;-146.27;79.98;83557.50;5040386;28;20021;-70
2023/05/04 07:05:52;;;;;;;10.73;7.00;;;;;;;-146.27;79.10;83573.56;5030147;28;20063;-70
2023/05/04 07:08:18;;;;;;;13.43;7.50;;;;;;;-146.27;77.86;83557.50;5031488;28;20029;-70
2023/05/04 07:10:44;;;;;;;12.52;6.50;;;;;;;-146.27;77.84;83533.38;5032815;28;20056;-70
2023/05/04 07:13:13;;;;;;;15.07;7.50;;;;;;;-146.27;78.97;83537.41;5029944;28;20536;-71
2023/05/04 07:15:39;;;;;;;10.23;7.03;;;;;;;-146.27;78.57;83509.28;5029526;28;20436;-70
2023/05/04 07:18:05;;;;;;;10.25;6.47;;;;;;;-146.27;78.09;83457.03;5028240;28;20021;-70
2023/05/04 07:20:31;;;;;;;12.15;7.30;;;;;;;-146.27;77.26;83493.19;5029183;28;20037;-72
2023/05/04 07:22:59;;;;;;;13.95;7.07;;;;;;;-146.27;77.21;83440.94;5030369;28;20071;-71
2023/05/04 07:25:25;;;;;;;15.38;7.68;;;;;;;-146.27;76.86;83434.94;5023536;28;20053;-73
2023/05/04 07:27:51;;;;;;;12.48;6.57;;;;;;;-146.27;77.23;83404.78;5028904;28;20025;-73
2023/05/04 07:30:18;;;;;;;10.43;7.07;;;;;;;-146.27;76.08;83422.88;5026700;28;20040;-72
2023/05/04 07:32:44;;;;;;;10.18;6.65;;;;;;;-146.27;75.78;83408.81;5029471;28;20430;-73
2023/05/04 07:35:09;;;;;;;12.95;6.93;;;;;;;-146.27;75.89;83386.69;5046878;28;20112;-72
2023/05/04 07:37:35;;;;;;;8.77;6.43;;;;;;;-146.27;75.22;83400.78;5031304;28;20160;-70
2023/05/04 07:40:04;;;;;;;14.02;8.13;;;;;;;-146.27;75.52;83392.72;5028790;28;20029;-74
2023/05/04 07:42:30;;;;;;;10.85;7.43;;;;;;;-146.27;75.51;83364.59;5029849;28;20108;-73
2023/05/04 07:44:55;;;;;;;12.00;7.72;;;;;;;-146.27;75.20;83316.38;5027982;28;20116;-73
2023/05/04 07:47:20;;;;;;;9.10;6.40;;;;;;;-146.27;75.89;83328.44;5030915;28;20480;-72
2023/05/04 07:49:46;;;;;;;11.30;6.88;;;;;;;-146.27;75.80;83332.44;5031050;28;20036;-72
2023/05/04 07:52:11;;;;;;;13.00;6.90;;;;;;;-146.27;75.14;83298.28;5031237;28;20025;-73
2023/05/04 07:54:37;;;;;;;11.57;7.90;;;;;;;-146.27;74.76;83272.19;5020318;28;20083;-73
2023/05/04 07:57:03;;;;;;;14.45;6.88;;;;;;;-146.27;75.18;83288.25;5032389;28;20037;-73
2023/05/04 07:59:32;;;;;;;13.95;6.85;;;;;;;-146.27;75.18;83260.13;5032202;28;20033;-73
2023/05/04 08:01:57;;;;;;;11.05;6.60;;;;;;;-146.27;73.09;83223.94;5029874;28;20032;-74
2023/05/04 08:04:22;;;;;;;16.60;6.65;;;;;;;-146.27;72.86;83262.13;5031568;28;20033;-75
2023/05/04 08:06:48;;;;;;;14.15;7.20;;;;;;;-146.27;72.35;83155.63;5031942;28;20068;-74
2023/05/04 08:09:18;;;;;;;14.70;6.75;;;;;;;-146.27;72.15;83167.69;5031696;28;20025;-74
2023/05/04 08:11:44;;;;;;;13.57;6.75;;;;;;;-146.27;72.95;83183.78;5015718;28;20113;-74
2023/05/04 08:14:10;;;;;;;9.65;7.28;;;;;;;-146.27;71.88;83183.78;5019909;28;20033;-74
2023/05/04 08:16:36;;;;;;;16.48;7.65;;;;;;;-146.27;72.33;83175.72;5032218;28;20018;-74
2023/05/04 08:19:01;;;;;;;10.80;6.70;;;;;;;-146.27;73.07;83153.63;5031816;28;20080;-72
2023/05/04 08:21:27;;;;;;;11.63;6.70;;;;;;;-146.27;71.86;83111.44;5031471;28;20033;-73
2023/05/04 08:23:53;;;;;;;12.02;6.97;;;;;;;-146.27;70.63;83079.28;5031912;28;20025;-73
2023/05/04 08:26:18;;;;;;;9.65;6.63;;;;;;;-146.27;69.99;83071.25;5029521;28;20025;-74
2023/05/04 08:28:45;;;;;;;9.88;6.80;;;;;;;-146.27;70.95;83041.13;5032000;28;20496;-73
2023/05/04 08:31:11;;;;;;;11.27;6.20;;;;;;;-146.27;70.04;82946.69;5031096;28;20034;-74
2023/05/04 08:33:36;;;;;;;12.13;6.78;;;;;;;-146.27;69.71;82950.72;5030350;28;20491;-74
2023/05/04 08:36:03;;;;;;;10.80;6.55;;;;;;;-146.27;66.91;82958.75;5030219;28;20022;-74
2023/05/04 08:38:28;;;;;;;9.27;7.22;;;;;;;-146.27;65.20;82958.75;5031508;28;20087;-72
2023/05/04 08:40:54;;;;;;;10.57;6.55;;;;;;;-146.27;68.94;82938.66;5031441;28;20029;-73
2023/05/04 08:43:19;;;;;;;10.57;7.05;;;;;;;-146.27;67.62;82904.50;5031683;28;20484;-74
2023/05/04 08:45:44;;;;;;;12.35;6.57;;;;;;;-146.27;66.12;82858.28;5031412;28;20431;-73
2023/05/04 08:48:10;;;;;;;9.52;6.22;;;;;;;-146.27;66.61;82838.19;5031072;28;20578;-75
2023/05/04 08:50:37;;;;;;;12.50;6.50;;;;;;;-146.27;65.81;82798.03;5031365;28;20056;-74
2023/05/04 08:53:05;;;;;;;9.90;6.90;;;;;;;-146.27;66.21;82771.91;5031727;28;20394;-73
2023/05/04 08:55:32;;;;;;;14.30;6.93;;;;;;;-146.27;67.28;82761.84;5030704;28;20033;-73
2023/05/04 08:58:00;;;;;;;10.20;6.13;;;;;;;-146.27;67.11;82721.69;5031537;28;20033;-74
2023/05/04 09:00:27;;;;;;;11.70;6.50;;;;;;;-146.27;66.33;82633.28;5031315;28;20025;-73
2023/05/04 09:02:54;;;;;;;10.60;6.47;;;;;;;-146.27;65.16;82647.34;5029530;28;20458;-73
2023/05/04 09:05:20;;;;;;;11.38;6.63;;;;;;;-146.27;64.79;82633.28;5030777;28;20082;-73
2023/05/04 09:07:47;;;;;;;11.13;6.18;;;;;;;-146.27;63.65;82579.03;5031477;28;20029;-73
2023/05/04 09:10:13;;;;;;;10.25;6.78;;;;;;;-146.27;63.53;82589.09;5030128;28;20041;-74
2023/05/04 09:12:38;;;;;;;9.30;6.07;;;;;;;-146.27;61.40;82544.91;5030476;28;20052;-73
2023/05/04 09:15:17;;;;;;;8.63;5.80;;;;;;;-146.27;58.50;82526.81;5029841;28;20041;-73
2023/05/04 09:17:53;;;;;;;7.78;4.95;;;;;;;-146.27;56.32;82516.78;5030907;28;20028;-73
2023/05/04 09:20:18;;;;;;;12.02;6.22;;;;;;;-146.27;56.99;82472.56;5030607;28;20447;-73
2023/05/04 09:22:44;;;;;;;8.95;6.20;;;;;;;-146.27;59.75;82438.44;5030586;28;20017;-73
2023/05/04 09:25:11;;;;;;;13.82;7.22;;;;;;;-146.27;58.06;82426.38;5030476;28;20048;-73
2023/05/04 09:27:39;;;;;;;10.98;6.47;;;;;;;-146.27;58.39;82392.22;5030648;28;20029;-73
2023/05/04 09:30:05;;;;;;;11.50;5.72;;;;;;;-146.27;57.04;82364.09;5030547;28;20101;-73
2023/05/04 09:32:36;;;;;;;10.68;4.90;;;;;;;-146.27;55.30;82319.91;5028051;28;20033;-74
2023/05/04 09:35:01;;;;;;;8.52;4.82;;;;;;;-146.27;52.13;82327.94;5029726;28;20032;-73
2023/05/04 09:37:27;;;;;;;14.07;6.05;;;;;;;-146.27;53.20;82329.94;5030366;28;20029;-74
2023/05/04 09:39:57;;;;;;;11.07;6.18;;;;;;;-146.27;51.20;82243.56;5030193;28;20060;-74
2023/05/04 09:42:24;;;;;;;8.73;5.70;;;;;;;-146.27;49.40;82221.47;5029320;28;20028;-73
2023/05/04 09:45:04;;;;;;;8.55;5.60;;;;;;;-146.27;48.12;82213.44;5027770;28;20061;-74
2023/05/04 09:47:35;;;;;;;7.47;5.50;;;;;;;-146.27;48.13;82237.53;5024034;28;20029;-73
2023/05/04 09:50:14;;;;;;;10.13;5.68;;;;;;;-146.27;49.52;82183.31;5030019;28;20499;-73
2023/05/04 09:52:42;;;;;;;9.35;4.57;;;;;;;-146.27;49.43;82127.06;5028595;28;20029;-74
2023/05/04 09:55:10;;;;;;;12.35;5.70;;;;;;;-146.27;50.05;82084.88;5028872;28;20425;-74
2023/05/04 09:57:36;;;;;;;8.57;4.88;;;;;;;-146.27;52.89;82028.66;5030295;28;20040;-73
2023/05/04 10:00:03;;;;;;;9.45;5.43;;;;;;;-146.27;49.18;81990.47;5028969;28;20025;-73
2023/05/04 10:02:31;;;;;;;9.70;5.45;;;;;;;-146.27;48.11;81942.28;5022544;28;20139;-74
2023/05/04 10:04:57;;;;;;;11.15;5.40;;;;;;;-146.27;47.20;81922.19;5028370;28;20025;-73
2023/05/04 10:07:23;;;;;;;8.75;5.00;;;;;;;-146.27;48.74;81861.94;5019040;28;20038;-75
2023/05/04 10:09:50;;;;;;;7.55;5.55;;;;;;;-146.27;48.68;81882.00;5030417;28;20098;-74
2023/05/04 10:12:15;;;;;;;9.93;5.10;;;;;;;-146.27;44.22;81813.72;5030145;28;20631;-73
2023/05/04 10:14:45;;;;;;;8.35;5.28;;;;;;;-146.27;43.45;81849.88;5026187;28;20025;-73
2023/05/04 10:17:13;;;;;;;9.65;5.05;;;;;;;-146.27;43.27;81789.63;5032583;28;20488;-75
2023/05/04 10:20:06;;;;;;;7.72;4.78;;;;;;;-146.27;43.98;81743.44;5032885;28;20029;-75
2023/05/04 10:22:49;;;;;;;6.70;4.15;;;;;;;-146.27;43.53;81681.16;5016351;28;20363;-73
2023/05/04 10:25:33;;;;;;;;;;;;;;;-146.27;43.04;81649.03;5034524;28;20034;-74
2023/05/04 10:28:23;;;;;;;10.50;4.50;;;;;;;-146.27;44.16;81628.94;5034118;28;20384;-73
2023/05/04 10:30:55;;;;;;;9.52;4.57;;;;;;;-146.27;42.58;81602.84;5034515;28;20072;-74
2023/05/04 10:33:21;;;;;;;9.50;5.57;;;;;;;-146.27;41.70;81572.72;5032874;28;20108;-74
2023/05/04 10:35:53;;;;;;;7.90;5.00;;;;;;;-146.27;41.25;81554.63;5033226;28;20133;-73
2023/05/04 10:38:19;;;;;;;15.80;5.20;;;;;;;-146.27;40.74;81556.66;5028817;28;20484;-73
2023/05/04 10:40:47;;;;;;;7.47;4.70;;;;;;;-146.27;40.47;81474.31;5033145;28;20036;-74
2023/05/04 10:43:24;;;;;;;9.02;4.32;;;;;;;-146.27;39.23;81440.16;5032991;28;20071;-73
2023/05/04 10:45:50;;;;;;;9.85;5.25;;;;;;;-146.27;39.71;81516.47;5033719;28;20394;-73
2023/05/04 10:48:15;;;;;;;8.02;4.82;;;;;;;-146.27;41.24;81436.16;5016429;28;20030;-75
2023/05/04 10:50:45;;;;;;;8.63;4.97;;;;;;;-146.27;40.84;81387.94;5013997;28;20028;-74
2023/05/04 10:53:11;;;;;;;17.33;5.40;;;;;;;-146.27;40.58;81331.72;5013917;28;20026;-74
2023/05/04 10:55:42;;;;;;;6.07;4.15;;;;;;;-146.27;40.84;81253.38;5013970;28;20148;-74
2023/05/04 10:58:09;;;;;;;11.65;4.57;;;;;;;-146.27;39.98;81219.25;5013671;28;20034;-73
2023/05/04 11:00:47;;;;;;;6.95;4.95;;;;;;;-146.27;39.18;81231.31;5028634;28;20498;-73
2023/05/04 11:03:12;;;;;;;8.93;4.53;;;;;;;-146.27;39.46;81120.84;5029623;28;20366;-74
2023/05/04 11:05:43;;;;;;;8.00;4.50;;;;;;;-146.27;39.30;81042.53;5033408;28;20087;-73
2023/05/04 11:08:20;;;;;;;15.45;4.60;;;;;;;-146.27;38.70;81036.50;5017923;28;20112;-74
2023/05/04 11:10:47;;;;;;;6.13;4.78;;;;;;;-146.27;38.47;80958.19;5013356;28;20053;-74